createdAt,value
2018-02-14T00:00:06.167Z,10.47
2018-02-14T00:02:33.575Z,10.20
2018-02-14T00:05:01.024Z,9.33
2018-02-14T00:07:28.459Z,9.67
2018-02-14T00:09:56.662Z,8.40
2018-02-14T00:12:24.868Z,9.07
2018-02-14T00:14:53.083Z,9.20
2018-02-14T00:17:20.524Z,9.13
2018-02-14T00:19:47.976Z,10.07
2018-02-14T00:22:15.418Z,10.60
2018-02-14T00:24:42.863Z,8.70
2018-02-14T00:27:10.304Z,10.80
2018-02-14T00:29:37.747Z,9.40
2018-02-14T00:32:05.949Z,9.90
2018-02-14T00:34:33.390Z,9.57
2018-02-14T00:37:00.818Z,9.43
2018-02-14T00:39:28.258Z,8.60
2018-02-14T00:41:55.710Z,9.90
2018-02-14T00:44:23.152Z,9.37
2018-02-14T00:46:51.351Z,9.83
2018-02-14T00:49:18.799Z,8.77
2018-02-14T00:51:46.243Z,8.60
2018-02-14T00:54:13.687Z,9.57
2018-02-14T00:56:41.890Z,8.97
2018-02-14T00:59:09.337Z,9.40
2018-02-14T01:01:36.771Z,8.03
2018-02-14T01:04:04.208Z,9.07
2018-02-14T01:06:31.655Z,9.77
2018-02-14T01:08:59.099Z,9.50
2018-02-14T01:11:26.565Z,8.87
2018-02-14T01:13:53.991Z,9.00
2018-02-14T01:16:21.448Z,9.27
2018-02-14T01:18:48.888Z,9.00
2018-02-14T01:21:16.322Z,8.43
2018-02-14T01:23:43.758Z,8.73
2018-02-14T01:26:11.967Z,9.07
2018-02-14T01:28:40.175Z,7.87
2018-02-14T01:31:08.383Z,9.70
2018-02-14T01:33:35.823Z,9.30
2018-02-14T01:36:03.266Z,8.90
2018-02-14T01:38:30.713Z,9.40
2018-02-14T01:40:58.914Z,9.70
2018-02-14T01:43:26.355Z,9.10
2018-02-14T01:45:53.802Z,10.17
2018-02-14T01:48:21.235Z,10.00
2018-02-14T01:50:49.455Z,9.70
2018-02-14T01:53:16.901Z,7.93
2018-02-14T01:55:44.354Z,9.70
2018-02-14T01:58:11.786Z,9.47
2018-02-14T02:00:39.999Z,9.27
2018-02-14T02:03:07.447Z,9.87
2018-02-14T02:05:34.899Z,8.20
2018-02-14T02:10:35.318Z,10.03
2018-02-14T02:13:02.755Z,8.33
2018-02-14T02:15:30.195Z,9.50
2018-02-14T02:17:58.396Z,8.77
2018-02-14T02:20:26.618Z,8.40
2018-02-14T02:22:54.055Z,8.43
2018-02-14T02:25:21.491Z,9.60
2018-02-14T02:27:48.927Z,8.90
2018-02-14T02:30:16.586Z,8.83
2018-02-14T02:32:44.182Z,8.43
2018-02-14T02:35:11.622Z,8.80
2018-02-14T02:37:39.072Z,10.00
2018-02-14T02:40:18.246Z,9.40
2018-02-14T02:42:45.673Z,8.90
2018-02-14T02:45:13.121Z,10.60
2018-02-14T02:47:40.562Z,9.87
2018-02-14T02:50:08.008Z,9.50
2018-02-14T02:52:36.207Z,9.40
2018-02-14T02:55:04.418Z,9.73
2018-02-14T02:57:31.855Z,9.30
2018-02-14T02:59:59.301Z,9.03
2018-02-14T03:02:26.742Z,9.20
2018-02-14T03:04:54.938Z,9.70
2018-02-14T03:07:23.146Z,11.13
2018-02-14T03:09:51.346Z,10.73
2018-02-14T03:12:18.789Z,9.43
2018-02-14T03:14:46.218Z,9.50
2018-02-14T03:17:13.659Z,9.30
2018-02-14T03:19:41.086Z,9.43
2018-02-14T03:22:08.539Z,10.20
2018-02-14T03:24:36.744Z,8.90
2018-02-14T03:27:04.950Z,9.17
2018-02-14T03:29:32.382Z,8.90
2018-02-14T03:31:59.822Z,8.93
2018-02-14T03:34:27.250Z,8.90
2018-02-14T03:36:54.690Z,8.47
2018-02-14T03:39:22.127Z,8.97
2018-02-14T03:41:49.571Z,9.13
2018-02-14T03:44:17.008Z,8.03
2018-02-14T03:46:45.206Z,7.67
2018-02-14T03:49:12.647Z,8.60
2018-02-14T03:51:40.092Z,9.10
2018-02-14T03:54:07.522Z,9.07
2018-02-14T03:56:34.968Z,8.50
2018-02-14T03:59:02.407Z,9.17
2018-02-14T04:01:30.606Z,8.10
2018-02-14T04:03:58.041Z,8.70
2018-02-14T04:06:25.474Z,8.80
2018-02-14T04:08:52.906Z,9.00
2018-02-14T04:11:20.342Z,8.87
2018-02-14T04:13:47.820Z,9.33
2018-02-14T04:16:15.264Z,7.53
2018-02-14T04:18:42.689Z,9.67
2018-02-14T04:21:10.126Z,8.57
2018-02-14T04:23:37.563Z,8.80
2018-02-14T04:26:05.000Z,9.17
2018-02-14T04:28:33.193Z,9.33
2018-02-14T04:31:01.404Z,9.63
2018-02-14T04:33:29.598Z,8.20
2018-02-14T04:35:57.809Z,8.80
2018-02-14T04:38:25.239Z,8.37
2018-02-14T04:40:53.442Z,10.53
2018-02-14T04:43:20.874Z,9.60
2018-02-14T04:45:48.319Z,8.07
2018-02-14T04:48:15.749Z,8.40
2018-02-14T04:50:43.183Z,9.37
2018-02-14T04:53:10.614Z,9.47
2018-02-14T04:55:38.054Z,11.70
2018-02-14T04:58:06.267Z,11.87
2018-02-14T05:00:33.702Z,12.90
2018-02-14T05:03:01.148Z,10.33
2018-02-14T05:05:28.579Z,10.07
2018-02-14T05:07:56.022Z,10.47
2018-02-14T05:10:23.455Z,9.50
2018-02-14T05:12:51.654Z,9.13
2018-02-14T05:15:19.858Z,11.40
2018-02-14T05:17:48.103Z,16.63
2018-02-14T05:20:15.536Z,20.57
2018-02-14T05:22:43.814Z,17.47
2018-02-14T05:25:11.252Z,13.83
2018-02-14T05:27:38.694Z,12.20
2018-02-14T05:30:06.904Z,9.40
2018-02-14T05:32:34.352Z,8.40
2018-02-14T05:35:01.782Z,9.47
2018-02-14T05:37:29.224Z,10.30
2018-02-14T05:39:56.663Z,9.97
2018-02-14T05:42:24.105Z,11.00
2018-02-14T05:44:52.303Z,10.00
2018-02-14T05:47:20.514Z,10.13
2018-02-14T05:49:47.946Z,10.07
2018-02-14T05:52:15.387Z,9.57
2018-02-14T05:54:42.825Z,8.50
2018-02-14T05:57:10.262Z,8.83
2018-02-14T05:59:37.702Z,9.40
2018-02-14T06:02:05.915Z,8.90
2018-02-14T06:04:33.347Z,9.43
2018-02-14T06:07:00.782Z,9.67
2018-02-14T06:09:28.218Z,9.53
2018-02-14T06:11:55.655Z,8.80
2018-02-14T06:14:23.099Z,8.67
2018-02-14T06:16:51.303Z,7.73
2018-02-14T06:19:18.738Z,8.63
2018-02-14T06:21:46.173Z,9.10
2018-02-14T06:24:13.611Z,10.30
2018-02-14T06:26:41.053Z,15.40
2018-02-14T06:29:08.487Z,12.10
2018-02-14T06:31:36.703Z,11.70
2018-02-14T06:34:04.903Z,11.00
2018-02-14T06:36:32.337Z,8.80
2018-02-14T06:38:59.779Z,8.40
2018-02-14T06:41:27.205Z,9.00
2018-02-14T06:43:54.646Z,7.97
2018-02-14T06:46:22.119Z,8.53
2018-02-14T06:48:49.563Z,8.97
2018-02-14T06:51:17.762Z,9.43
2018-02-14T06:53:45.976Z,9.03
2018-02-14T06:56:14.171Z,9.70
2018-02-14T06:58:42.379Z,7.67
2018-02-14T07:01:09.806Z,8.50
2018-02-14T07:03:37.243Z,9.73
2018-02-14T07:06:04.882Z,9.17
2018-02-14T07:08:32.322Z,7.70
2018-02-14T07:10:59.763Z,10.00
2018-02-14T07:13:27.199Z,9.20
2018-02-14T07:15:54.626Z,8.43
2018-02-14T07:18:22.070Z,9.80
2018-02-14T07:20:49.502Z,9.00
2018-02-14T07:23:22.679Z,9.73
2018-02-14T07:25:50.109Z,8.93
2018-02-14T07:28:17.554Z,11.20
2018-02-14T07:30:44.987Z,10.80
2018-02-14T07:33:12.426Z,10.50
2018-02-14T07:35:40.631Z,11.77
2018-02-14T07:38:08.843Z,11.03
2018-02-14T07:40:36.282Z,13.57
2018-02-14T07:43:03.727Z,12.70
2018-02-14T07:45:31.163Z,13.07
2018-02-14T07:47:59.377Z,14.47
2018-02-14T07:50:27.590Z,14.33
2018-02-14T07:52:55.035Z,12.80
2018-02-14T07:55:22.466Z,14.20
2018-02-14T07:57:49.927Z,14.10
2018-02-14T08:00:18.048Z,13.80
2018-02-14T08:02:45.496Z,13.67
2018-02-14T08:05:13.705Z,13.30
2018-02-14T08:07:41.153Z,14.37
2018-02-14T08:10:08.582Z,15.30
2018-02-14T08:12:36.022Z,15.70
2018-02-14T08:15:04.227Z,15.60
2018-02-14T08:17:32.438Z,15.37
2018-02-14T08:20:00.634Z,14.30
2018-02-14T08:22:28.847Z,14.30
2018-02-14T08:24:56.281Z,13.90
2018-02-14T08:27:23.730Z,13.07
2018-02-14T08:29:51.162Z,13.13
2018-02-14T08:32:19.381Z,15.60
2018-02-14T08:34:47.590Z,16.10
2018-02-14T08:37:15.031Z,13.73
2018-02-14T08:39:42.473Z,14.83
2018-02-14T08:42:09.958Z,15.23
2018-02-14T08:44:37.399Z,16.20
2018-02-14T08:47:05.606Z,14.73
2018-02-14T08:49:33.054Z,17.13
2018-02-14T08:52:00.511Z,17.33
2018-02-14T08:54:27.948Z,17.07
2018-02-14T08:56:56.282Z,16.87
2018-02-14T08:59:23.731Z,16.70
2018-02-14T09:01:51.928Z,16.20
2018-02-14T09:04:19.370Z,14.70
2018-02-14T09:06:46.806Z,17.47
2018-02-14T09:09:14.251Z,16.47
2018-02-14T09:11:42.453Z,15.73
2018-02-14T09:14:10.660Z,16.60
2018-02-14T09:16:38.867Z,16.87
2018-02-14T09:19:06.310Z,14.70
2018-02-14T09:21:33.748Z,17.67
2018-02-14T09:24:01.195Z,16.50
2018-02-14T09:26:29.408Z,17.47
2018-02-14T09:28:57.611Z,18.00
2018-02-14T09:31:25.056Z,15.67
2018-02-14T09:33:52.494Z,17.60
2018-02-14T09:36:19.927Z,18.63
2018-02-14T09:38:47.376Z,15.93
2018-02-14T09:41:14.815Z,17.27
2018-02-14T09:43:43.032Z,18.30
2018-02-14T09:46:10.462Z,22.40
2018-02-14T09:48:37.911Z,17.00
2018-02-14T09:51:05.349Z,18.23
2018-02-14T09:53:33.579Z,20.17
2018-02-14T09:56:01.762Z,19.77
2018-02-14T09:58:29.970Z,17.60
2018-02-14T10:00:58.175Z,17.50
2018-02-14T10:03:25.614Z,15.47
2018-02-14T10:05:53.054Z,19.70
2018-02-14T10:08:20.498Z,19.10
2018-02-14T10:10:48.702Z,18.43
2018-02-14T10:13:16.914Z,18.43
2018-02-14T10:15:45.115Z,19.10
2018-02-14T10:18:12.554Z,16.83
2018-02-14T10:20:39.990Z,15.97
2018-02-14T10:23:07.427Z,16.90
2018-02-14T10:25:34.871Z,17.97
2018-02-14T10:28:02.315Z,18.00
2018-02-14T10:30:30.520Z,17.50
2018-02-14T10:32:57.963Z,17.27
2018-02-14T10:35:25.399Z,17.80
2018-02-14T10:37:52.838Z,17.33
2018-02-14T10:40:20.310Z,18.43
2018-02-14T10:42:47.715Z,17.70
2018-02-14T10:45:15.918Z,19.43
2018-02-14T10:47:43.400Z,19.10
2018-02-14T10:50:10.798Z,17.77
2018-02-14T10:52:38.234Z,16.67
2018-02-14T10:55:05.670Z,19.70
2018-02-14T10:57:33.106Z,18.07
2018-02-14T11:00:00.555Z,18.00
2018-02-14T11:02:28.000Z,19.20
2018-02-14T11:05:01.182Z,22.90
2018-02-14T11:07:28.614Z,19.10
2018-02-14T11:09:56.064Z,17.63
2018-02-14T11:12:24.262Z,17.90
2018-02-14T11:14:52.480Z,19.43
2018-02-14T11:17:19.914Z,16.67
2018-02-14T11:19:47.360Z,17.70
2018-02-14T11:22:14.787Z,18.33
2018-02-14T11:24:42.231Z,16.90
2018-02-14T11:27:09.676Z,18.17
2018-02-14T11:29:37.878Z,18.20
2018-02-14T11:32:06.082Z,15.60
2018-02-14T11:34:33.533Z,13.83
2018-02-14T11:37:00.972Z,15.27
2018-02-14T11:39:28.423Z,15.20
2018-02-14T11:41:56.622Z,20.35
2018-02-14T11:44:24.058Z,20.10
2018-02-14T11:46:52.258Z,17.73
2018-02-14T11:49:19.698Z,15.93
2018-02-14T11:51:47.135Z,16.07
2018-02-14T11:54:14.565Z,14.60
2018-02-14T11:56:41.998Z,13.97
2018-02-14T11:59:09.430Z,13.53
2018-02-14T12:01:36.870Z,15.87
2018-02-14T12:04:05.067Z,14.67
2018-02-14T12:06:32.506Z,16.57
2018-02-14T12:08:59.934Z,15.67
2018-02-14T12:11:28.143Z,16.13
2018-02-14T12:13:56.342Z,15.90
2018-02-14T12:16:24.551Z,14.30
2018-02-14T12:18:52.751Z,14.43
2018-02-14T12:21:20.960Z,15.60
2018-02-14T12:23:48.394Z,19.27
2018-02-14T12:26:15.827Z,19.77
2018-02-14T12:28:43.263Z,17.87
2018-02-14T12:31:10.698Z,15.17
2018-02-14T12:33:38.130Z,12.93
2018-02-14T12:36:05.566Z,14.00
2018-02-14T12:38:32.998Z,14.30
2018-02-14T12:41:01.202Z,13.90
2018-02-14T12:43:29.398Z,14.00
2018-02-14T12:45:57.616Z,12.20
2018-02-14T12:48:25.046Z,12.70
2018-02-14T12:50:52.486Z,10.63
2018-02-14T12:53:19.934Z,12.30
2018-02-14T12:55:48.142Z,9.53
2018-02-14T12:58:16.346Z,10.10
2018-02-14T13:00:44.542Z,9.87
2018-02-14T13:03:11.985Z,11.60
2018-02-14T13:05:39.432Z,11.17
2018-02-14T13:08:06.868Z,9.63
2018-02-14T13:10:35.073Z,11.03
2018-02-14T13:13:03.283Z,10.90
2018-02-14T13:15:31.496Z,10.07
2018-02-14T13:17:58.934Z,10.50
2018-02-14T13:20:26.372Z,10.60
2018-02-14T13:22:53.829Z,10.47
2018-02-14T13:25:21.259Z,10.80
2018-02-14T13:27:48.696Z,11.37
2018-02-14T13:30:16.520Z,11.40
2018-02-14T13:32:43.951Z,11.00
2018-02-14T13:35:11.423Z,13.20
2018-02-14T13:37:38.829Z,14.20
2018-02-14T13:40:06.268Z,13.88
2018-02-14T13:42:33.723Z,11.77
2018-02-14T13:45:01.154Z,12.00
2018-02-14T13:47:29.361Z,11.27
2018-02-14T13:49:56.790Z,10.97
2018-02-14T13:52:24.243Z,10.90
2018-02-14T13:54:52.521Z,11.50
2018-02-14T13:57:19.978Z,12.40
2018-02-14T13:59:48.202Z,13.62
2018-02-14T14:02:15.652Z,10.67
2018-02-14T14:04:43.110Z,11.73
2018-02-14T14:07:10.536Z,10.60
2018-02-14T14:09:38.739Z,10.83
2018-02-14T14:12:06.182Z,10.13
2018-02-14T14:14:33.615Z,9.30
2018-02-14T14:17:01.050Z,12.32
2018-02-14T14:19:28.482Z,13.07
2018-02-14T14:21:55.927Z,11.33
2018-02-14T14:24:23.383Z,13.93
2018-02-14T14:26:50.827Z,13.00
2018-02-14T14:29:18.267Z,11.63
2018-02-14T14:31:45.702Z,12.17
2018-02-14T14:34:13.135Z,12.60
2018-02-14T14:36:40.576Z,10.43
2018-02-14T14:39:08.008Z,9.80
2018-02-14T14:41:35.456Z,11.50
2018-02-14T14:44:02.890Z,12.07
2018-02-14T14:46:31.099Z,9.77
2018-02-14T14:48:58.590Z,10.20
2018-02-14T14:51:26.026Z,10.70
2018-02-14T14:53:53.458Z,11.00
2018-02-14T14:56:20.890Z,10.67
2018-02-14T14:58:48.324Z,9.90
2018-02-14T15:20:53.196Z,11.30
2018-02-14T15:23:20.638Z,14.40
2018-02-14T15:25:48.076Z,13.05
2018-02-14T15:28:15.522Z,13.93
2018-02-14T15:30:42.960Z,14.90
2018-02-14T15:33:10.394Z,14.37
2018-02-14T15:35:37.832Z,12.50
2018-02-14T15:38:05.278Z,14.55
2018-02-14T15:40:32.710Z,13.57
2018-02-14T15:43:00.923Z,14.98
2018-02-14T15:45:29.139Z,15.40
2018-02-14T15:47:56.607Z,13.93
2018-02-14T15:50:24.799Z,14.40
2018-02-14T15:52:53.005Z,13.30
2018-02-14T15:55:21.198Z,12.93
2018-02-14T15:57:49.411Z,10.77
2018-02-14T16:00:17.265Z,10.90
2018-02-14T16:02:44.689Z,13.30
2018-02-14T16:05:12.120Z,13.07
2018-02-14T16:07:39.570Z,15.50
2018-02-14T16:10:07.016Z,15.45
2018-02-14T16:12:35.222Z,15.15
2018-02-14T16:15:02.670Z,16.00
2018-02-14T16:17:30.106Z,17.00
2018-02-14T16:19:57.550Z,16.30
2018-02-14T16:22:25.762Z,15.75
2018-02-14T16:24:53.195Z,16.65
2018-02-14T16:27:20.639Z,16.80
2018-02-14T16:29:48.088Z,16.62
2018-02-14T16:32:16.299Z,16.23
2018-02-14T16:34:43.735Z,16.97
2018-02-14T16:37:11.184Z,18.40
2018-02-14T16:39:38.654Z,18.50
2018-02-14T16:42:06.062Z,15.68
2018-02-14T16:44:33.508Z,18.15
2018-02-14T16:47:00.943Z,18.90
2018-02-14T16:49:28.403Z,18.62
2018-02-14T16:51:55.834Z,18.65
2018-02-14T16:54:24.070Z,18.98
2018-02-14T16:56:51.498Z,19.27
2018-02-14T16:59:19.706Z,18.65
2018-02-14T17:01:47.942Z,18.00
2018-02-14T17:04:15.386Z,16.80
2018-02-14T17:06:43.586Z,16.83
2018-02-14T17:09:11.799Z,15.80
2018-02-14T17:11:39.222Z,15.60
2018-02-14T17:14:06.672Z,16.48
2018-02-14T17:16:34.112Z,15.32
2018-02-14T17:19:01.550Z,17.93
2018-02-14T17:21:28.978Z,14.80
2018-02-14T17:26:24.167Z,15.32
2018-02-14T17:28:52.379Z,15.73
2018-02-14T17:31:19.817Z,18.48
2018-02-14T17:33:47.254Z,18.77
2018-02-14T17:36:14.705Z,20.35
2018-02-14T17:38:42.915Z,17.83
2018-02-14T17:41:10.348Z,18.12
2018-02-14T17:43:37.794Z,15.57
2018-02-14T17:46:05.227Z,16.45
2018-02-14T17:48:32.674Z,14.70
2018-02-14T17:51:00.108Z,15.82
2018-02-14T17:53:27.556Z,19.62
2018-02-14T17:55:54.998Z,20.17
2018-02-14T17:58:22.434Z,18.25
2018-02-14T18:00:49.866Z,16.73
2018-02-14T18:03:17.307Z,15.60
2018-02-14T18:05:44.734Z,17.52
2018-02-14T18:08:12.178Z,18.75
2018-02-14T18:10:40.388Z,18.12
2018-02-14T18:13:07.875Z,17.02
2018-02-14T18:15:35.275Z,15.23
2018-02-14T18:18:02.714Z,16.40
2018-02-14T18:20:30.914Z,16.00
2018-02-14T18:22:59.136Z,20.08
2018-02-14T18:25:26.574Z,23.70
2018-02-14T18:27:54.006Z,23.98
2018-02-14T18:30:21.450Z,21.30
2018-02-14T18:32:49.664Z,21.00
2018-02-14T18:35:17.107Z,17.95
2018-02-14T18:37:44.554Z,21.40
2018-02-14T18:40:11.994Z,21.77
2018-02-14T18:42:40.220Z,20.57
2018-02-14T18:45:07.682Z,19.50
2018-02-14T18:47:35.888Z,19.08
2018-02-14T18:50:03.327Z,18.60
2018-02-14T18:52:30.771Z,17.30
2018-02-14T18:54:58.214Z,17.70
2018-02-14T18:57:26.413Z,16.27
2018-02-14T18:59:54.618Z,16.37
2018-02-14T19:02:22.830Z,15.73
2018-02-14T19:04:50.315Z,16.90
2018-02-14T19:07:17.750Z,23.55
2018-02-14T19:09:45.203Z,22.70
2018-02-14T19:12:13.429Z,22.65
2018-02-14T19:14:40.857Z,20.60
2018-02-14T19:17:08.307Z,21.93
2018-02-14T19:19:36.519Z,23.58
2018-02-14T19:22:04.748Z,25.48
2018-02-14T19:24:32.202Z,24.02
2018-02-14T19:27:00.400Z,23.00
2018-02-14T19:29:27.878Z,24.85
2018-02-14T19:31:56.074Z,24.87
2018-02-14T19:34:24.288Z,21.43
2018-02-14T19:36:51.745Z,23.00
2018-02-14T19:39:20.055Z,25.02
2018-02-14T19:41:48.262Z,25.30
2018-02-14T19:44:15.703Z,22.10
2018-02-14T19:46:43.146Z,22.60
2018-02-14T19:49:10.590Z,24.60
2018-02-14T19:51:38.806Z,22.95
2018-02-14T19:54:06.238Z,24.83
2018-02-14T19:56:33.696Z,21.33
2018-02-14T19:59:01.138Z,24.15
2018-02-14T20:01:28.627Z,23.98
2018-02-14T20:03:56.066Z,24.15
2018-02-14T20:06:23.503Z,23.30
2018-02-14T20:08:50.950Z,23.65
2018-02-14T20:11:19.165Z,24.57
2018-02-14T20:13:47.366Z,22.55
2018-02-14T20:16:14.811Z,23.95
2018-02-14T20:18:42.250Z,26.60
2018-02-14T20:21:09.694Z,25.30
2018-02-14T20:23:37.911Z,26.33
2018-02-14T20:26:05.346Z,26.47
2018-02-14T20:28:32.807Z,26.33
2018-02-14T20:31:00.252Z,24.83
2018-02-14T20:33:27.710Z,25.67
2018-02-14T20:35:55.919Z,24.67
2018-02-14T20:38:24.127Z,23.50
2018-02-14T20:40:51.570Z,24.40
2018-02-14T20:43:19.005Z,24.60
2018-02-14T20:45:46.447Z,25.87
2018-02-14T20:48:14.676Z,24.85
2018-02-14T20:50:42.119Z,21.60
2018-02-14T20:53:09.554Z,23.35
2018-02-14T20:55:37.022Z,21.95
2018-02-14T20:58:04.512Z,21.77
2018-02-14T21:00:31.962Z,23.25
2018-02-14T21:03:00.154Z,24.67
2018-02-14T21:05:28.362Z,22.90
2018-02-14T21:07:55.806Z,24.58
2018-02-14T21:10:23.279Z,23.23
2018-02-14T21:12:50.691Z,26.70
2018-02-14T21:15:18.920Z,26.62
2018-02-14T21:17:46.406Z,25.33
2018-02-14T21:20:13.866Z,27.95
2018-02-14T21:22:42.075Z,26.50
2018-02-14T21:25:09.518Z,26.83
2018-02-14T21:27:36.976Z,29.55
2018-02-14T21:30:05.178Z,27.98
2018-02-14T21:32:32.627Z,29.67
2018-02-14T21:35:00.063Z,28.52
2018-02-14T21:37:27.513Z,27.77
2018-02-14T21:39:54.954Z,27.15
2018-02-14T21:42:22.411Z,28.20
2018-02-14T21:44:50.606Z,27.83
2018-02-14T21:47:18.821Z,28.75
2018-02-14T21:49:47.031Z,28.20
2018-02-14T21:52:14.474Z,28.45
2018-02-14T21:54:41.907Z,22.37
2018-02-14T21:57:09.346Z,22.83
2018-02-14T21:59:37.551Z,21.57
2018-02-14T22:02:05.778Z,20.43
2018-02-14T22:04:33.217Z,20.80
2018-02-14T22:07:00.647Z,19.90
2018-02-14T22:09:28.096Z,21.90
2018-02-14T22:11:56.290Z,21.80
2018-02-14T22:14:24.498Z,20.80
2018-02-14T22:16:51.930Z,21.63
2018-02-14T22:19:19.374Z,20.07
2018-02-14T22:21:46.806Z,19.57
2018-02-14T22:24:14.250Z,19.10
2018-02-14T22:26:41.686Z,20.23
2018-02-14T22:29:09.890Z,20.90
2018-02-14T22:31:38.135Z,21.63
2018-02-14T22:34:05.582Z,19.90
2018-02-14T22:36:33.019Z,19.57
2018-02-14T22:39:00.463Z,18.73
2018-02-14T22:41:27.898Z,20.07
2018-02-14T22:43:55.342Z,18.40
2018-02-14T22:46:22.779Z,20.13
2018-02-14T22:48:50.996Z,21.73
2018-02-14T22:51:18.434Z,19.90
2018-02-14T22:53:45.869Z,19.57
2018-02-14T22:56:13.306Z,20.03
2018-02-14T22:58:40.746Z,20.90
2018-02-14T23:01:08.194Z,20.00
2018-02-14T23:03:35.617Z,18.33
2018-02-14T23:06:03.070Z,20.60
2018-02-14T23:08:30.515Z,18.53
2018-02-14T23:10:58.736Z,28.50
2018-02-14T23:13:26.171Z,28.25
2018-02-14T23:15:53.610Z,27.75
2018-02-14T23:18:21.050Z,28.12
2018-02-14T23:20:49.271Z,26.13
2018-02-14T23:23:16.726Z,27.85
2018-02-14T23:25:44.946Z,27.87
2018-02-14T23:28:13.150Z,27.98
2018-02-14T23:30:40.601Z,28.70
2018-02-14T23:33:08.810Z,28.70
2018-02-14T23:35:36.259Z,28.27
2018-02-14T23:38:03.711Z,25.90
2018-02-14T23:40:31.151Z,27.15
2018-02-14T23:42:59.358Z,26.42
2018-02-14T23:45:27.559Z,24.85
2018-02-14T23:47:55.778Z,26.37
2018-02-14T23:50:23.214Z,26.48
2018-02-14T23:52:50.666Z,24.83
2018-02-14T23:55:18.102Z,23.60
2018-02-14T23:57:45.555Z,26.12
